D39

Sauk Centre Municipal Airport

Sauk Centre, Minnesota, USA
METAR KD39 241315Z AUTO 18009KT 10SM CLR 15/12 A2983 RMK AO2 LTG DSNT N T01530120
Observed Flight Rules
Sep-24 @ 13:15 UTC (22 minutes ago) Visual Flight Rules
Wind Visibility Clouds
180° at 9 knots 10 miles
  • Clear skies
Temperatures Readings
Current 15°C / 59°F
Dewpoint 12°C / 54°F
Humidity 82%
Altimeter 29.83" Hg
Pressure 1010 hPa
Elevation 380
METAR KD39 241315Z AUTO 18009KT 10SM CLR 15/12 A2983 RMK AO2 LTG DSNT N T01530120
Observed Flight Rules
Sep-24 @ 13:15 UTC
(22 minutes ago)
VFR
Wind Visibility
180° at 9 knots 10 miles
Clouds
  • Clear skies
Temperature Dewpoint
15°C / 59°F 12°C / 54°F
Humidity Altimeter Pressure
82% 29.83" Hg 1010 hPa